sensor_id;sensor_type;location;lat;lon;timestamp;P1;durP1;ratioP1;P2;durP2;ratioP2
61915;SDS011;47868;51.326;6.550;2022-11-20T00:01:06;24.65;;;17.90;;
61915;SDS011;47868;51.326;6.550;2022-11-20T00:03:33;22.95;;;16.75;;
61915;SDS011;47868;51.326;6.550;2022-11-20T00:06:00;23.67;;;17.45;;
61915;SDS011;47868;51.326;6.550;2022-11-20T00:08:31;28.85;;;17.20;;
61915;SDS011;47868;51.326;6.550;2022-11-20T00:10:57;23.08;;;16.77;;
61915;SDS011;47868;51.326;6.550;2022-11-20T00:13:27;24.27;;;17.67;;
61915;SDS011;47868;51.326;6.550;2022-11-20T00:15:59;23.05;;;17.83;;
61915;SDS011;47868;51.326;6.550;2022-11-20T00:18:26;24.65;;;18.00;;
61915;SDS011;47868;51.326;6.550;2022-11-20T00:20:52;23.88;;;18.20;;
61915;SDS011;47868;51.326;6.550;2022-11-20T00:23:18;22.95;;;17.35;;
61915;SDS011;47868;51.326;6.550;2022-11-20T00:25:44;24.90;;;17.20;;
61915;SDS011;47868;51.326;6.550;2022-11-20T00:28:10;23.80;;;17.20;;
61915;SDS011;47868;51.326;6.550;2022-11-20T00:30:35;25.33;;;17.27;;
61915;SDS011;47868;51.326;6.550;2022-11-20T00:33:01;24.45;;;16.95;;
61915;SDS011;47868;51.326;6.550;2022-11-20T00:35:26;21.75;;;17.15;;
61915;SDS011;47868;51.326;6.550;2022-11-20T00:37:52;24.55;;;17.20;;
61915;SDS011;47868;51.326;6.550;2022-11-20T00:40:18;23.98;;;18.08;;
61915;SDS011;47868;51.326;6.550;2022-11-20T00:42:44;21.75;;;17.45;;
61915;SDS011;47868;51.326;6.550;2022-11-20T00:45:09;22.90;;;17.43;;
61915;SDS011;47868;51.326;6.550;2022-11-20T00:47:35;24.27;;;17.87;;
61915;SDS011;47868;51.326;6.550;2022-11-20T00:50:00;23.43;;;18.33;;
61915;SDS011;47868;51.326;6.550;2022-11-20T00:52:26;23.17;;;17.57;;
61915;SDS011;47868;51.326;6.550;2022-11-20T00:54:52;28.27;;;18.37;;
61915;SDS011;47868;51.326;6.550;2022-11-20T00:57:17;24.10;;;18.33;;
61915;SDS011;47868;51.326;6.550;2022-11-20T00:59:43;21.80;;;17.77;;
61915;SDS011;47868;51.326;6.550;2022-11-20T01:02:08;23.77;;;18.57;;
61915;SDS011;47868;51.326;6.550;2022-11-20T01:04:34;23.40;;;17.67;;
61915;SDS011;47868;51.326;6.550;2022-11-20T01:06:59;24.97;;;18.57;;
61915;SDS011;47868;51.326;6.550;2022-11-20T01:09:25;23.07;;;18.50;;
61915;SDS011;47868;51.326;6.550;2022-11-20T01:11:50;24.77;;;19.13;;
61915;SDS011;47868;51.326;6.550;2022-11-20T01:14:17;23.38;;;18.40;;
61915;SDS011;47868;51.326;6.550;2022-11-20T01:16:50;24.23;;;17.70;;
61915;SDS011;47868;51.326;6.550;2022-11-20T01:19:20;25.10;;;18.92;;
61915;SDS011;47868;51.326;6.550;2022-11-20T01:21:51;25.77;;;19.00;;
61915;SDS011;47868;51.326;6.550;2022-11-20T01:24:18;24.15;;;19.08;;
61915;SDS011;47868;51.326;6.550;2022-11-20T01:26:46;20.83;;;18.50;;
61915;SDS011;47868;51.326;6.550;2022-11-20T01:29:14;23.98;;;19.50;;
61915;SDS011;47868;51.326;6.550;2022-11-20T01:31:41;23.75;;;19.02;;
61915;SDS011;47868;51.326;6.550;2022-11-20T01:34:12;23.95;;;19.27;;
61915;SDS011;47868;51.326;6.550;2022-11-20T01:36:40;28.17;;;19.05;;
61915;SDS011;47868;51.326;6.550;2022-11-20T01:39:07;27.42;;;19.15;;
61915;SDS011;47868;51.326;6.550;2022-11-20T01:41:36;25.60;;;18.60;;
61915;SDS011;47868;51.326;6.550;2022-11-20T01:44:22;28.27;;;19.55;;
61915;SDS011;47868;51.326;6.550;2022-11-20T01:47:08;23.65;;;19.58;;
61915;SDS011;47868;51.326;6.550;2022-11-20T01:49:41;25.85;;;20.20;;
61915;SDS011;47868;51.326;6.550;2022-11-20T01:52:17;26.77;;;19.83;;
61915;SDS011;47868;51.326;6.550;2022-11-20T01:54:47;25.98;;;19.95;;
61915;SDS011;47868;51.326;6.550;2022-11-20T01:57:23;24.98;;;20.20;;
61915;SDS011;47868;51.326;6.550;2022-11-20T01:59:54;28.58;;;19.98;;
61915;SDS011;47868;51.326;6.550;2022-11-20T02:02:24;26.38;;;21.10;;
61915;SDS011;47868;51.326;6.550;2022-11-20T02:04:51;24.97;;;20.33;;
61915;SDS011;47868;51.326;6.550;2022-11-20T02:07:19;32.50;;;20.33;;
61915;SDS011;47868;51.326;6.550;2022-11-20T02:09:46;25.45;;;18.73;;
61915;SDS011;47868;51.326;6.550;2022-11-20T02:12:12;25.98;;;20.65;;
61915;SDS011;47868;51.326;6.550;2022-11-20T02:14:57;25.98;;;20.05;;
61915;SDS011;47868;51.326;6.550;2022-11-20T02:17:23;26.02;;;19.77;;
61915;SDS011;47868;51.326;6.550;2022-11-20T02:19:50;25.98;;;20.52;;
61915;SDS011;47868;51.326;6.550;2022-11-20T02:22:20;24.83;;;19.70;;
61915;SDS011;47868;51.326;6.550;2022-11-20T02:24:55;25.00;;;20.60;;
61915;SDS011;47868;51.326;6.550;2022-11-20T02:27:24;28.50;;;20.42;;
61915;SDS011;47868;51.326;6.550;2022-11-20T02:32:33;23.98;;;19.50;;
61915;SDS011;47868;51.326;6.550;2022-11-20T02:35:35;25.52;;;19.92;;
61915;SDS011;47868;51.326;6.550;2022-11-20T02:37:56;25.45;;;20.15;;
61915;SDS011;47868;51.326;6.550;2022-11-20T02:40:24;24.60;;;20.27;;
61915;SDS011;47868;51.326;6.550;2022-11-20T02:42:53;28.65;;;21.08;;
61915;SDS011;47868;51.326;6.550;2022-11-20T02:45:20;25.25;;;19.88;;
61915;SDS011;47868;51.326;6.550;2022-11-20T02:47:47;27.27;;;20.90;;
61915;SDS011;47868;51.326;6.550;2022-11-20T02:50:13;27.92;;;20.85;;
61915;SDS011;47868;51.326;6.550;2022-11-20T02:52:39;24.80;;;19.10;;
61915;SDS011;47868;51.326;6.550;2022-11-20T02:55:04;26.65;;;20.02;;
61915;SDS011;47868;51.326;6.550;2022-11-20T02:57:30;25.33;;;19.50;;
61915;SDS011;47868;51.326;6.550;2022-11-20T02:59:56;26.63;;;20.05;;
61915;SDS011;47868;51.326;6.550;2022-11-20T03:02:21;28.53;;;21.37;;
61915;SDS011;47868;51.326;6.550;2022-11-20T03:04:47;25.60;;;19.98;;
61915;SDS011;47868;51.326;6.550;2022-11-20T03:07:13;24.77;;;19.38;;
61915;SDS011;47868;51.326;6.550;2022-11-20T03:09:39;27.70;;;19.87;;
61915;SDS011;47868;51.326;6.550;2022-11-20T03:12:04;27.40;;;19.93;;
61915;SDS011;47868;51.326;6.550;2022-11-20T03:14:30;27.60;;;19.85;;
61915;SDS011;47868;51.326;6.550;2022-11-20T03:16:56;27.77;;;20.33;;
61915;SDS011;47868;51.326;6.550;2022-11-20T03:19:22;25.20;;;20.57;;
61915;SDS011;47868;51.326;6.550;2022-11-20T03:21:47;27.60;;;20.77;;
61915;SDS011;47868;51.326;6.550;2022-11-20T03:24:13;26.73;;;20.27;;
61915;SDS011;47868;51.326;6.550;2022-11-20T03:26:39;26.17;;;20.60;;
61915;SDS011;47868;51.326;6.550;2022-11-20T03:29:05;26.50;;;19.90;;
61915;SDS011;47868;51.326;6.550;2022-11-20T03:31:32;30.97;;;20.93;;
61915;SDS011;47868;51.326;6.550;2022-11-20T03:34:00;28.93;;;20.87;;
61915;SDS011;47868;51.326;6.550;2022-11-20T03:36:26;27.00;;;20.53;;
61915;SDS011;47868;51.326;6.550;2022-11-20T03:38:53;27.50;;;20.60;;
61915;SDS011;47868;51.326;6.550;2022-11-20T03:41:20;26.97;;;20.97;;
61915;SDS011;47868;51.326;6.550;2022-11-20T03:44:00;25.73;;;20.17;;
61915;SDS011;47868;51.326;6.550;2022-11-20T03:46:27;31.00;;;22.37;;
61915;SDS011;47868;51.326;6.550;2022-11-20T03:48:54;26.17;;;20.27;;
61915;SDS011;47868;51.326;6.550;2022-11-20T03:51:21;28.50;;;21.40;;
61915;SDS011;47868;51.326;6.550;2022-11-20T03:53:49;29.43;;;21.40;;
61915;SDS011;47868;51.326;6.550;2022-11-20T03:56:16;25.70;;;19.87;;
61915;SDS011;47868;51.326;6.550;2022-11-20T03:58:44;30.97;;;21.30;;
61915;SDS011;47868;51.326;6.550;2022-11-20T04:03:37;27.80;;;20.53;;
61915;SDS011;47868;51.326;6.550;2022-11-20T04:06:11;26.07;;;19.17;;
61915;SDS011;47868;51.326;6.550;2022-11-20T04:08:38;28.33;;;21.03;;
61915;SDS011;47868;51.326;6.550;2022-11-20T04:11:24;25.03;;;19.50;;
61915;SDS011;47868;51.326;6.550;2022-11-20T04:13:52;26.00;;;20.20;;
61915;SDS011;47868;51.326;6.550;2022-11-20T04:16:20;25.50;;;20.23;;
61915;SDS011;47868;51.326;6.550;2022-11-20T04:18:46;25.83;;;19.90;;
61915;SDS011;47868;51.326;6.550;2022-11-20T04:21:16;26.00;;;20.57;;
61915;SDS011;47868;51.326;6.550;2022-11-20T04:23:41;25.90;;;20.30;;
61915;SDS011;47868;51.326;6.550;2022-11-20T04:26:08;26.27;;;20.20;;
61915;SDS011;47868;51.326;6.550;2022-11-20T04:28:37;27.17;;;19.17;;
61915;SDS011;47868;51.326;6.550;2022-11-20T04:33:33;23.93;;;18.83;;
61915;SDS011;47868;51.326;6.550;2022-11-20T04:36:00;23.53;;;18.47;;
61915;SDS011;47868;51.326;6.550;2022-11-20T04:38:31;27.17;;;20.13;;
61915;SDS011;47868;51.326;6.550;2022-11-20T04:41:00;24.43;;;19.20;;
61915;SDS011;47868;51.326;6.550;2022-11-20T04:43:28;30.10;;;20.30;;
61915;SDS011;47868;51.326;6.550;2022-11-20T04:45:54;26.77;;;19.83;;
61915;SDS011;47868;51.326;6.550;2022-11-20T04:48:21;23.37;;;18.50;;
61915;SDS011;47868;51.326;6.550;2022-11-20T04:50:47;25.30;;;18.80;;
61915;SDS011;47868;51.326;6.550;2022-11-20T04:53:14;24.47;;;19.20;;
61915;SDS011;47868;51.326;6.550;2022-11-20T04:55:39;25.00;;;19.97;;
61915;SDS011;47868;51.326;6.550;2022-11-20T04:58:05;27.20;;;19.27;;
61915;SDS011;47868;51.326;6.550;2022-11-20T05:00:31;23.40;;;18.30;;
61915;SDS011;47868;51.326;6.550;2022-11-20T05:02:56;25.20;;;19.30;;
61915;SDS011;47868;51.326;6.550;2022-11-20T05:05:22;25.13;;;18.23;;
61915;SDS011;47868;51.326;6.550;2022-11-20T05:07:47;25.33;;;20.10;;
61915;SDS011;47868;51.326;6.550;2022-11-20T05:10:13;23.17;;;19.27;;
61915;SDS011;47868;51.326;6.550;2022-11-20T05:12:39;25.00;;;18.50;;
61915;SDS011;47868;51.326;6.550;2022-11-20T05:15:05;22.77;;;18.27;;
61915;SDS011;47868;51.326;6.550;2022-11-20T05:17:30;24.23;;;18.27;;
61915;SDS011;47868;51.326;6.550;2022-11-20T05:19:56;24.50;;;18.80;;
61915;SDS011;47868;51.326;6.550;2022-11-20T05:22:22;23.40;;;18.80;;
61915;SDS011;47868;51.326;6.550;2022-11-20T05:24:47;26.23;;;19.87;;
61915;SDS011;47868;51.326;6.550;2022-11-20T05:27:13;27.52;;;21.42;;
61915;SDS011;47868;51.326;6.550;2022-11-20T05:29:39;30.67;;;21.27;;
61915;SDS011;47868;51.326;6.550;2022-11-20T05:32:04;24.13;;;19.58;;
61915;SDS011;47868;51.326;6.550;2022-11-20T05:34:32;26.47;;;19.50;;
61915;SDS011;47868;51.326;6.550;2022-11-20T05:36:58;25.83;;;19.53;;
61915;SDS011;47868;51.326;6.550;2022-11-20T05:39:23;23.85;;;18.75;;
61915;SDS011;47868;51.326;6.550;2022-11-20T05:41:49;23.93;;;18.00;;
61915;SDS011;47868;51.326;6.550;2022-11-20T05:44:34;30.13;;;17.98;;
61915;SDS011;47868;51.326;6.550;2022-11-20T05:47:00;29.43;;;19.60;;
61915;SDS011;47868;51.326;6.550;2022-11-20T05:49:25;27.83;;;19.50;;
61915;SDS011;47868;51.326;6.550;2022-11-20T05:51:51;25.80;;;18.50;;
61915;SDS011;47868;51.326;6.550;2022-11-20T05:54:16;23.27;;;18.00;;
61915;SDS011;47868;51.326;6.550;2022-11-20T05:56:42;23.63;;;19.03;;
61915;SDS011;47868;51.326;6.550;2022-11-20T05:59:08;26.73;;;19.20;;
61915;SDS011;47868;51.326;6.550;2022-11-20T06:01:33;24.65;;;18.92;;
61915;SDS011;47868;51.326;6.550;2022-11-20T06:04:01;31.63;;;18.73;;
61915;SDS011;47868;51.326;6.550;2022-11-20T06:06:26;31.48;;;21.15;;
61915;SDS011;47868;51.326;6.550;2022-11-20T06:08:52;28.17;;;19.47;;
61915;SDS011;47868;51.326;6.550;2022-11-20T06:11:18;25.77;;;19.67;;
61915;SDS011;47868;51.326;6.550;2022-11-20T06:13:44;23.90;;;18.08;;
61915;SDS011;47868;51.326;6.550;2022-11-20T06:16:11;24.73;;;19.10;;
61915;SDS011;47868;51.326;6.550;2022-11-20T06:18:38;24.35;;;18.83;;
61915;SDS011;47868;51.326;6.550;2022-11-20T06:23:34;24.88;;;19.05;;
61915;SDS011;47868;51.326;6.550;2022-11-20T06:26:04;23.45;;;18.05;;
61915;SDS011;47868;51.326;6.550;2022-11-20T06:28:31;26.48;;;19.42;;
61915;SDS011;47868;51.326;6.550;2022-11-20T06:30:57;26.73;;;19.70;;
61915;SDS011;47868;51.326;6.550;2022-11-20T06:33:23;25.73;;;19.23;;
61915;SDS011;47868;51.326;6.550;2022-11-20T06:35:48;27.45;;;20.30;;
61915;SDS011;47868;51.326;6.550;2022-11-20T06:38:14;25.67;;;19.20;;
61915;SDS011;47868;51.326;6.550;2022-11-20T06:40:40;27.02;;;18.92;;
61915;SDS011;47868;51.326;6.550;2022-11-20T06:43:07;26.00;;;18.95;;
61915;SDS011;47868;51.326;6.550;2022-11-20T06:45:36;25.00;;;18.95;;
61915;SDS011;47868;51.326;6.550;2022-11-20T06:48:01;25.80;;;18.73;;
61915;SDS011;47868;51.326;6.550;2022-11-20T06:50:28;24.20;;;18.65;;
61915;SDS011;47868;51.326;6.550;2022-11-20T06:52:54;23.02;;;18.42;;
61915;SDS011;47868;51.326;6.550;2022-11-20T06:55:19;25.52;;;19.35;;
61915;SDS011;47868;51.326;6.550;2022-11-20T06:57:45;28.42;;;19.33;;
61915;SDS011;47868;51.326;6.550;2022-11-20T07:00:10;23.93;;;18.10;;
61915;SDS011;47868;51.326;6.550;2022-11-20T07:02:36;25.30;;;18.40;;
61915;SDS011;47868;51.326;6.550;2022-11-20T07:05:02;27.30;;;22.33;;
61915;SDS011;47868;51.326;6.550;2022-11-20T07:07:28;25.43;;;20.27;;
61915;SDS011;47868;51.326;6.550;2022-11-20T07:09:55;31.33;;;21.77;;
61915;SDS011;47868;51.326;6.550;2022-11-20T07:12:20;31.08;;;22.27;;
61915;SDS011;47868;51.326;6.550;2022-11-20T07:14:46;29.85;;;20.70;;
61915;SDS011;47868;51.326;6.550;2022-11-20T07:17:12;25.97;;;20.73;;
61915;SDS011;47868;51.326;6.550;2022-11-20T07:19:37;26.27;;;20.33;;
61915;SDS011;47868;51.326;6.550;2022-11-20T07:22:04;25.98;;;19.20;;
61915;SDS011;47868;51.326;6.550;2022-11-20T07:24:29;25.30;;;19.77;;
61915;SDS011;47868;51.326;6.550;2022-11-20T07:26:55;22.08;;;18.20;;
61915;SDS011;47868;51.326;6.550;2022-11-20T07:29:20;25.67;;;18.75;;
61915;SDS011;47868;51.326;6.550;2022-11-20T07:31:46;28.00;;;18.40;;
61915;SDS011;47868;51.326;6.550;2022-11-20T07:34:12;23.27;;;18.83;;
61915;SDS011;47868;51.326;6.550;2022-11-20T07:36:37;30.35;;;20.63;;
61915;SDS011;47868;51.326;6.550;2022-11-20T07:39:03;26.60;;;19.70;;
61915;SDS011;47868;51.326;6.550;2022-11-20T07:41:29;24.33;;;19.57;;
61915;SDS011;47868;51.326;6.550;2022-11-20T07:43:54;24.60;;;19.02;;
61915;SDS011;47868;51.326;6.550;2022-11-20T07:46:20;23.10;;;19.08;;
61915;SDS011;47868;51.326;6.550;2022-11-20T07:48:45;23.40;;;19.05;;
61915;SDS011;47868;51.326;6.550;2022-11-20T07:51:11;26.67;;;19.48;;
61915;SDS011;47868;51.326;6.550;2022-11-20T07:53:38;22.95;;;19.70;;
61915;SDS011;47868;51.326;6.550;2022-11-20T07:56:04;28.42;;;22.05;;
61915;SDS011;47868;51.326;6.550;2022-11-20T07:58:30;33.30;;;23.35;;
61915;SDS011;47868;51.326;6.550;2022-11-20T08:00:58;27.40;;;21.88;;
61915;SDS011;47868;51.326;6.550;2022-11-20T08:03:27;27.27;;;21.17;;
61915;SDS011;47868;51.326;6.550;2022-11-20T08:05:53;24.10;;;20.00;;
61915;SDS011;47868;51.326;6.550;2022-11-20T08:08:18;24.55;;;20.08;;
61915;SDS011;47868;51.326;6.550;2022-11-20T08:10:44;28.40;;;20.13;;
61915;SDS011;47868;51.326;6.550;2022-11-20T08:13:10;24.67;;;19.63;;
61915;SDS011;47868;51.326;6.550;2022-11-20T08:15:54;24.73;;;19.30;;
61915;SDS011;47868;51.326;6.550;2022-11-20T08:18:19;25.50;;;21.10;;
61915;SDS011;47868;51.326;6.550;2022-11-20T08:20:45;25.83;;;20.10;;
61915;SDS011;47868;51.326;6.550;2022-11-20T08:23:10;26.92;;;20.73;;
61915;SDS011;47868;51.326;6.550;2022-11-20T08:25:37;23.65;;;19.33;;
61915;SDS011;47868;51.326;6.550;2022-11-20T08:28:03;26.10;;;20.15;;
61915;SDS011;47868;51.326;6.550;2022-11-20T08:30:32;26.75;;;20.33;;
61915;SDS011;47868;51.326;6.550;2022-11-20T08:33:01;28.70;;;20.52;;
61915;SDS011;47868;51.326;6.550;2022-11-20T08:35:28;22.58;;;18.73;;
61915;SDS011;47868;51.326;6.550;2022-11-20T08:37:58;27.05;;;20.15;;
61915;SDS011;47868;51.326;6.550;2022-11-20T08:40:24;25.02;;;20.45;;
61915;SDS011;47868;51.326;6.550;2022-11-20T08:42:50;26.35;;;21.08;;
61915;SDS011;47868;51.326;6.550;2022-11-20T08:45:16;24.25;;;19.88;;
61915;SDS011;47868;51.326;6.550;2022-11-20T08:47:43;23.90;;;19.70;;
61915;SDS011;47868;51.326;6.550;2022-11-20T08:50:10;24.73;;;20.42;;
61915;SDS011;47868;51.326;6.550;2022-11-20T08:52:37;27.83;;;20.80;;
61915;SDS011;47868;51.326;6.550;2022-11-20T08:55:03;25.42;;;19.55;;
61915;SDS011;47868;51.326;6.550;2022-11-20T08:57:36;30.75;;;20.83;;
61915;SDS011;47868;51.326;6.550;2022-11-20T09:00:03;26.02;;;19.77;;
61915;SDS011;47868;51.326;6.550;2022-11-20T09:02:30;26.02;;;20.30;;
61915;SDS011;47868;51.326;6.550;2022-11-20T09:04:57;25.10;;;19.15;;
61915;SDS011;47868;51.326;6.550;2022-11-20T09:07:23;28.90;;;20.30;;
61915;SDS011;47868;51.326;6.550;2022-11-20T09:09:48;28.50;;;20.17;;
61915;SDS011;47868;51.326;6.550;2022-11-20T09:12:14;26.17;;;20.33;;
61915;SDS011;47868;51.326;6.550;2022-11-20T09:14:39;29.10;;;20.42;;
61915;SDS011;47868;51.326;6.550;2022-11-20T09:17:05;25.00;;;19.77;;
61915;SDS011;47868;51.326;6.550;2022-11-20T09:19:32;26.45;;;20.30;;
61915;SDS011;47868;51.326;6.550;2022-11-20T09:21:58;25.42;;;20.35;;
61915;SDS011;47868;51.326;6.550;2022-11-20T09:24:25;25.85;;;20.40;;
61915;SDS011;47868;51.326;6.550;2022-11-20T09:26:51;24.02;;;20.38;;
61915;SDS011;47868;51.326;6.550;2022-11-20T09:29:16;25.80;;;20.52;;
61915;SDS011;47868;51.326;6.550;2022-11-20T09:31:42;26.05;;;21.13;;
61915;SDS011;47868;51.326;6.550;2022-11-20T09:34:07;26.05;;;21.42;;
61915;SDS011;47868;51.326;6.550;2022-11-20T09:36:33;26.17;;;20.55;;
61915;SDS011;47868;51.326;6.550;2022-11-20T09:38:58;25.67;;;20.75;;
61915;SDS011;47868;51.326;6.550;2022-11-20T09:44:10;26.63;;;19.50;;
61915;SDS011;47868;51.326;6.550;2022-11-20T09:54:43;25.73;;;19.63;;
61915;SDS011;47868;51.326;6.550;2022-11-20T09:57:14;30.15;;;21.27;;
61915;SDS011;47868;51.326;6.550;2022-11-20T09:59:50;26.55;;;20.58;;
61915;SDS011;47868;51.326;6.550;2022-11-20T10:07:37;28.63;;;21.40;;
61915;SDS011;47868;51.326;6.550;2022-11-20T10:13:20;34.97;;;22.70;;
61915;SDS011;47868;51.326;6.550;2022-11-20T10:26:22;32.25;;;21.65;;
61915;SDS011;47868;51.326;6.550;2022-11-20T10:31:41;38.33;;;23.13;;
61915;SDS011;47868;51.326;6.550;2022-11-20T10:37:26;35.00;;;23.15;;
61915;SDS011;47868;51.326;6.550;2022-11-20T10:39:58;37.30;;;24.98;;
61915;SDS011;47868;51.326;6.550;2022-11-20T10:42:35;41.80;;;24.75;;
61915;SDS011;47868;51.326;6.550;2022-11-20T10:45:15;40.88;;;24.48;;
61915;SDS011;47868;51.326;6.550;2022-11-20T10:47:47;39.17;;;25.38;;
61915;SDS011;47868;51.326;6.550;2022-11-20T10:50:14;41.53;;;26.10;;
61915;SDS011;47868;51.326;6.550;2022-11-20T10:58:10;38.45;;;24.58;;
61915;SDS011;47868;51.326;6.550;2022-11-20T11:00:39;40.85;;;25.90;;
61915;SDS011;47868;51.326;6.550;2022-11-20T11:03:14;43.85;;;26.85;;
61915;SDS011;47868;51.326;6.550;2022-11-20T11:05:49;42.78;;;27.20;;
61915;SDS011;47868;51.326;6.550;2022-11-20T11:08:23;46.72;;;29.10;;
61915;SDS011;47868;51.326;6.550;2022-11-20T11:10:53;42.50;;;28.08;;
61915;SDS011;47868;51.326;6.550;2022-11-20T11:13:22;38.67;;;25.25;;
61915;SDS011;47868;51.326;6.550;2022-11-20T11:15:49;40.35;;;26.58;;
61915;SDS011;47868;51.326;6.550;2022-11-20T11:21:00;40.25;;;24.85;;
61915;SDS011;47868;51.326;6.550;2022-11-20T11:23:37;38.22;;;25.90;;
61915;SDS011;47868;51.326;6.550;2022-11-20T11:26:20;35.03;;;24.17;;
61915;SDS011;47868;51.326;6.550;2022-11-20T11:28:57;37.42;;;23.98;;
61915;SDS011;47868;51.326;6.550;2022-11-20T11:31:29;40.10;;;24.67;;
61915;SDS011;47868;51.326;6.550;2022-11-20T11:34:12;37.60;;;24.38;;
61915;SDS011;47868;51.326;6.550;2022-11-20T11:36:40;37.83;;;24.77;;
61915;SDS011;47868;51.326;6.550;2022-11-20T11:39:14;41.92;;;24.63;;
61915;SDS011;47868;51.326;6.550;2022-11-20T11:41:42;35.97;;;24.27;;
61915;SDS011;47868;51.326;6.550;2022-11-20T11:44:43;35.65;;;23.58;;
61915;SDS011;47868;51.326;6.550;2022-11-20T11:47:23;39.28;;;23.38;;
61915;SDS011;47868;51.326;6.550;2022-11-20T11:52:35;33.15;;;23.15;;
61915;SDS011;47868;51.326;6.550;2022-11-20T12:00:44;35.90;;;22.90;;
61915;SDS011;47868;51.326;6.550;2022-11-20T12:03:19;31.50;;;22.75;;
61915;SDS011;47868;51.326;6.550;2022-11-20T12:05:50;34.28;;;21.85;;
61915;SDS011;47868;51.326;6.550;2022-11-20T12:08:41;34.65;;;23.10;;
61915;SDS011;47868;51.326;6.550;2022-11-20T12:11:34;37.63;;;22.92;;
61915;SDS011;47868;51.326;6.550;2022-11-20T12:14:21;29.23;;;21.10;;
61915;SDS011;47868;51.326;6.550;2022-11-20T12:16:54;34.00;;;22.10;;
61915;SDS011;47868;51.326;6.550;2022-11-20T12:19:22;32.17;;;21.75;;
61915;SDS011;47868;51.326;6.550;2022-11-20T12:30:20;29.02;;;19.15;;
61915;SDS011;47868;51.326;6.550;2022-11-20T12:47:12;30.20;;;19.80;;
61915;SDS011;47868;51.326;6.550;2022-11-20T12:52:48;25.80;;;18.70;;
61915;SDS011;47868;51.326;6.550;2022-11-20T12:55:28;29.08;;;21.42;;
61915;SDS011;47868;51.326;6.550;2022-11-20T12:58:26;29.85;;;20.52;;
61915;SDS011;47868;51.326;6.550;2022-11-20T13:01:11;31.25;;;20.05;;
61915;SDS011;47868;51.326;6.550;2022-11-20T13:04:48;29.48;;;21.13;;
61915;SDS011;47868;51.326;6.550;2022-11-20T13:07:20;27.33;;;20.98;;
61915;SDS011;47868;51.326;6.550;2022-11-20T13:09:49;25.60;;;20.17;;
61915;SDS011;47868;51.326;6.550;2022-11-20T13:15:08;29.13;;;21.83;;
61915;SDS011;47868;51.326;6.550;2022-11-20T13:17:51;30.70;;;22.20;;
61915;SDS011;47868;51.326;6.550;2022-11-20T13:20:20;29.95;;;22.10;;
61915;SDS011;47868;51.326;6.550;2022-11-20T13:22:47;30.40;;;22.85;;
61915;SDS011;47868;51.326;6.550;2022-11-20T13:25:49;32.22;;;23.52;;
61915;SDS011;47868;51.326;6.550;2022-11-20T13:30:36;32.22;;;22.48;;
61915;SDS011;47868;51.326;6.550;2022-11-20T13:33:32;33.03;;;23.42;;
61915;SDS011;47868;51.326;6.550;2022-11-20T13:36:04;32.67;;;22.75;;
61915;SDS011;47868;51.326;6.550;2022-11-20T13:38:48;29.23;;;22.27;;
61915;SDS011;47868;51.326;6.550;2022-11-20T13:44:14;32.08;;;22.42;;
61915;SDS011;47868;51.326;6.550;2022-11-20T13:46:48;30.90;;;22.63;;
61915;SDS011;47868;51.326;6.550;2022-11-20T13:49:30;31.25;;;22.80;;
61915;SDS011;47868;51.326;6.550;2022-11-20T13:52:06;33.05;;;23.90;;
61915;SDS011;47868;51.326;6.550;2022-11-20T14:00:20;33.90;;;24.23;;
61915;SDS011;47868;51.326;6.550;2022-11-20T14:03:01;37.25;;;24.88;;
61915;SDS011;47868;51.326;6.550;2022-11-20T14:05:30;33.35;;;21.20;;
61915;SDS011;47868;51.326;6.550;2022-11-20T14:08:02;33.72;;;22.65;;
61915;SDS011;47868;51.326;6.550;2022-11-20T14:10:30;35.50;;;23.25;;
61915;SDS011;47868;51.326;6.550;2022-11-20T14:12:56;37.67;;;24.58;;
61915;SDS011;47868;51.326;6.550;2022-11-20T14:15:32;36.33;;;23.98;;
61915;SDS011;47868;51.326;6.550;2022-11-20T14:17:59;31.92;;;23.70;;
61915;SDS011;47868;51.326;6.550;2022-11-20T14:20:36;35.95;;;24.02;;
61915;SDS011;47868;51.326;6.550;2022-11-20T14:23:03;39.20;;;24.83;;
61915;SDS011;47868;51.326;6.550;2022-11-20T14:25:30;39.38;;;25.40;;
61915;SDS011;47868;51.326;6.550;2022-11-20T14:28:02;39.92;;;24.92;;
61915;SDS011;47868;51.326;6.550;2022-11-20T14:30:43;39.50;;;24.02;;
61915;SDS011;47868;51.326;6.550;2022-11-20T14:33:11;37.47;;;24.50;;
61915;SDS011;47868;51.326;6.550;2022-11-20T14:35:51;39.92;;;26.05;;
61915;SDS011;47868;51.326;6.550;2022-11-20T14:38:24;39.38;;;25.77;;
61915;SDS011;47868;51.326;6.550;2022-11-20T14:40:52;41.72;;;25.70;;
61915;SDS011;47868;51.326;6.550;2022-11-20T14:43:27;38.50;;;25.02;;
61915;SDS011;47868;51.326;6.550;2022-11-20T14:46:00;33.58;;;23.95;;
61915;SDS011;47868;51.326;6.550;2022-11-20T14:48:32;38.20;;;24.92;;
61915;SDS011;47868;51.326;6.550;2022-11-20T14:51:05;33.58;;;23.30;;
61915;SDS011;47868;51.326;6.550;2022-11-20T14:53:33;33.80;;;23.65;;
61915;SDS011;47868;51.326;6.550;2022-11-20T14:56:00;31.80;;;22.60;;
61915;SDS011;47868;51.326;6.550;2022-11-20T14:58:27;34.10;;;24.00;;
61915;SDS011;47868;51.326;6.550;2022-11-20T15:00:56;33.60;;;23.48;;
61915;SDS011;47868;51.326;6.550;2022-11-20T15:03:32;36.75;;;23.88;;
61915;SDS011;47868;51.326;6.550;2022-11-20T15:06:00;34.92;;;24.98;;
61915;SDS011;47868;51.326;6.550;2022-11-20T15:08:26;33.45;;;23.98;;
61915;SDS011;47868;51.326;6.550;2022-11-20T15:10:52;34.42;;;24.58;;
61915;SDS011;47868;51.326;6.550;2022-11-20T15:13:34;35.17;;;25.38;;
61915;SDS011;47868;51.326;6.550;2022-11-20T15:16:03;36.08;;;25.42;;
61915;SDS011;47868;51.326;6.550;2022-11-20T15:18:37;35.33;;;24.38;;
61915;SDS011;47868;51.326;6.550;2022-11-20T15:21:10;35.00;;;25.20;;
61915;SDS011;47868;51.326;6.550;2022-11-20T15:23:37;33.25;;;24.25;;
61915;SDS011;47868;51.326;6.550;2022-11-20T15:26:06;35.70;;;25.40;;
61915;SDS011;47868;51.326;6.550;2022-11-20T15:28:53;36.85;;;24.90;;
61915;SDS011;47868;51.326;6.550;2022-11-20T15:31:20;34.30;;;24.85;;
61915;SDS011;47868;51.326;6.550;2022-11-20T15:33:48;36.15;;;24.45;;
61915;SDS011;47868;51.326;6.550;2022-11-20T15:36:13;36.38;;;25.33;;
61915;SDS011;47868;51.326;6.550;2022-11-20T15:38:39;37.95;;;24.52;;
61915;SDS011;47868;51.326;6.550;2022-11-20T15:41:05;38.03;;;26.58;;
61915;SDS011;47868;51.326;6.550;2022-11-20T15:43:31;32.83;;;24.42;;
61915;SDS011;47868;51.326;6.550;2022-11-20T15:46:00;33.60;;;23.90;;
61915;SDS011;47868;51.326;6.550;2022-11-20T15:48:35;33.25;;;23.27;;
61915;SDS011;47868;51.326;6.550;2022-11-20T15:51:13;34.72;;;23.15;;
61915;SDS011;47868;51.326;6.550;2022-11-20T15:53:56;33.28;;;23.27;;
61915;SDS011;47868;51.326;6.550;2022-11-20T15:56:22;33.45;;;22.98;;
61915;SDS011;47868;51.326;6.550;2022-11-20T15:58:48;30.92;;;22.77;;
61915;SDS011;47868;51.326;6.550;2022-11-20T16:01:15;30.63;;;22.50;;
61915;SDS011;47868;51.326;6.550;2022-11-20T16:03:43;34.03;;;23.27;;
61915;SDS011;47868;51.326;6.550;2022-11-20T16:06:09;31.90;;;22.80;;
61915;SDS011;47868;51.326;6.550;2022-11-20T16:08:35;37.58;;;24.80;;
61915;SDS011;47868;51.326;6.550;2022-11-20T16:11:00;32.97;;;22.85;;
61915;SDS011;47868;51.326;6.550;2022-11-20T16:13:26;30.38;;;22.38;;
61915;SDS011;47868;51.326;6.550;2022-11-20T16:18:57;31.30;;;21.05;;